Flight Information

DEPARTURE
APPLE VALLEY, CA
Elevation:
3061
Runways:
18/36 - 6498x150 - ASPH-G
8/26 - 4099x60 - ASPH-G
CTAF:
122.800
DESTINATION
BAKERSFIELD, CA
Elevation:
509
TPA:
1509 (est.)
Runways:
12L/30R - 10849x150 - ASPH-G
12R/30L - 7700x100 - ASPH-E
ATIS:
118.6 661-399-9425
Tower:
BAKERSFIELD TOWER 118.1
Ground:
121.7


105.4 NM300° True-14° Var285° HDG

Flight Plan:
(click to file on line)

1. Type
2. Aircraft Identification
3. Aircraft Type / Special Equipment
4. True Airspeed
kts
5. Departure Airport
(ICAO code)
6. Arriving Airport
(ICAO code)
7. Cruising Altitude
ft
8. Alternate Airport
(ICAO code)
9. Route of Flight
10. Remarks


00:00:00 Departure ATIS: Destination ATIS:

Clearance Limit:
Route:
Altitude: Expect in minutes
Frequency:
Transponder: (7500 Hijack / 7600 Lost Comms / 7700 Emergency)


KVCV 012245Z 16004KT 10SM SKC A2994
Time: 2020-06-01T22:45:00Z
1591062302
Winds: 160 @ 4 kts
Visibility: 10.0 sm
Clouds (AGL): SKC
Temperature: C
Dew Point: C
Pressure: 29.940945 in Hgbr

KBFL 020054Z 33010KT 10SM CLR 29/11 A2988 RMK AO2 SLP112 T02940111
Time: 2020-06-02T00:54:00Z
1591062303
Winds: 330 @ 10 kts
Visibility: 10.0 sm
Clouds (AGL): CLR
Temperature: 29.4 C
Dew Point: 11.1 C
Pressure: 29.878937 in Hgbr


Notes:

Data extracted from FAA Digital Chart Supplement. Effective: 0901Z Thursday, May 21, 2020 to 0901Z Thursday, Jul 16, 2020
Current ATIS data is provided courtesy of PilotEdge.